Time;durP1;ratioP1;P1;durP2;ratioP2;P2;SDS_P1;SDS_P2;PMS_P1;PMS_P2;Temp;Humidity;BMP_temperature;BMP_pressure;BME280_temperature;BME280_humidity;BME280_pressure;Samples;Min_cycle;Max_cycle;Signal;HPM_P1;HPM_P2
2022/07/05 00:00:30;;;;;;;2.80;2.60;;;;;20.30;96547.00;;;;8319942;28;20223;-64
2022/07/05 00:04:33;;;;;;;4.22;2.58;;;;;20.30;96550.00;;;;8345060;28;22075;-65
2022/07/05 00:08:37;;;;;;;3.53;2.58;;;;;20.30;96551.00;;;;8348814;28;20197;-65
2022/07/05 00:12:40;;;;;;;6.63;2.60;;;;;20.30;96554.00;;;;8353070;28;20280;-66
2022/07/05 00:16:44;;;;;;;2.67;2.47;;;;;20.30;96548.00;;;;8350183;28;20224;-65
2022/07/05 00:20:47;;;;;;;2.72;2.53;;;;;20.30;96533.00;;;;8351632;28;20221;-65
2022/07/05 00:24:51;;;;;;;2.45;2.20;;;;;20.20;96535.00;;;;8352221;28;20193;-65
2022/07/05 00:28:54;;;;;;;2.38;2.25;;;;;20.10;96531.00;;;;8345983;28;20912;-65
2022/07/05 00:32:58;;;;;;;2.40;2.20;;;;;20.00;96528.00;;;;8349113;28;20201;-66
2022/07/05 00:37:02;;;;;;;4.03;2.22;;;;;19.90;96536.00;;;;8349367;28;20217;-64
2022/07/05 00:41:05;;;;;;;3.17;2.40;;;;;19.90;96539.00;;;;8354210;28;20235;-66
2022/07/05 00:45:10;;;;;;;2.65;2.45;;;;;19.90;96542.00;;;;8350397;28;20572;-64
2022/07/05 00:49:14;;;;;;;2.08;1.98;;;;;19.80;96540.00;;;;8351155;28;20208;-65
2022/07/05 00:53:18;;;;;;;2.88;2.17;;;;;19.70;96541.00;;;;8349687;28;20192;-64
2022/07/05 00:57:23;;;;;;;2.25;2.10;;;;;19.70;96533.00;;;;8357092;28;20224;-64
2022/07/05 01:01:27;;;;;;;2.17;2.05;;;;;19.80;96526.00;;;;8346353;28;20303;-64
2022/07/05 01:05:33;;;;;;;3.63;1.95;;;;;19.90;96530.00;;;;8322400;28;20703;-64
2022/07/05 01:09:37;;;;;;;2.75;2.10;;;;;19.90;96529.00;;;;8322606;28;20280;-64
2022/07/05 01:13:40;;;;;;;3.72;2.03;;;;;20.00;96531.00;;;;8322325;28;20584;-64
2022/07/05 01:17:43;;;;;;;2.85;2.00;;;;;20.00;96537.00;;;;8323862;28;20216;-64
2022/07/05 01:21:49;;;;;;;1.75;1.63;;;;;20.00;96516.00;;;;8322660;28;20226;-63
2022/07/05 01:25:55;;;;;;;2.28;1.85;;;;;20.00;96514.00;;;;8320057;28;20206;-64
2022/07/05 01:29:58;;;;;;;2.05;1.95;;;;;20.00;96517.00;;;;8323517;28;20607;-65
2022/07/05 01:34:01;;;;;;;2.05;1.85;;;;;20.00;96512.00;;;;8318922;28;20193;-65
2022/07/05 01:38:05;;;;;;;2.80;1.67;;;;;20.00;96506.00;;;;8321426;28;20205;-65
2022/07/05 01:42:10;;;;;;;2.85;1.80;;;;;20.10;96514.00;;;;8320243;28;20225;-65
2022/07/05 01:46:16;;;;;;;4.28;2.03;;;;;20.00;96510.00;;;;8320439;28;20591;-63
2022/07/05 01:50:22;;;;;;;2.17;1.95;;;;;20.00;96510.00;;;;8312672;28;20221;-65
2022/07/05 01:54:25;;;;;;;1.95;1.85;;;;;19.90;96512.00;;;;8317065;28;20714;-64
2022/07/05 01:58:32;;;;;;;2.33;1.90;;;;;19.90;96514.00;;;;8318391;28;20203;-66
2022/07/05 02:02:35;;;;;;;2.15;1.90;;;;;19.90;96516.00;;;;8329975;28;20259;-66
2022/07/05 02:06:39;;;;;;;3.25;2.25;;;;;19.90;96516.00;;;;8346887;28;20196;-68
2022/07/05 02:10:43;;;;;;;2.63;2.10;;;;;19.90;96524.00;;;;8353797;28;20189;-65
2022/07/05 02:14:47;;;;;;;6.70;2.17;;;;;19.80;96530.00;;;;8348433;28;20197;-64
2022/07/05 02:18:50;;;;;;;1.83;1.75;;;;;19.80;96529.00;;;;8351657;28;20274;-65
2022/07/05 02:22:54;;;;;;;13.07;2.55;;;;;19.70;96518.00;;;;8348501;28;20762;-64
2022/07/05 02:26:57;;;;;;;13.68;2.53;;;;;19.60;96523.00;;;;8342131;28;20201;-67
2022/07/05 02:31:02;;;;;;;2.00;1.90;;;;;19.60;96519.00;;;;8352035;28;20292;-65
2022/07/05 02:35:06;;;;;;;3.38;2.22;;;;;19.50;96524.00;;;;8354891;28;20597;-65
2022/07/05 02:39:09;;;;;;;2.88;2.13;;;;;19.50;96530.00;;;;8346161;28;20613;-65
2022/07/05 02:43:12;;;;;;;2.72;2.28;;;;;19.30;96537.00;;;;8353148;28;20201;-64
2022/07/05 02:47:17;;;;;;;4.10;2.30;;;;;19.10;96535.00;;;;8333897;28;20193;-65
2022/07/05 02:51:20;;;;;;;2.45;2.25;;;;;18.90;96542.00;;;;8342231;28;20197;-64
2022/07/05 02:55:24;;;;;;;2.53;2.13;;;;;18.70;96538.00;;;;8354217;28;20258;-64
2022/07/05 02:59:27;;;;;;;4.53;2.13;;;;;18.60;96543.00;;;;8343435;28;20220;-64
2022/07/05 03:03:32;;;;;;;1.98;1.92;;;;;18.50;96552.00;;;;8371055;23;20240;-66
2022/07/05 03:07:35;;;;;;;5.78;2.72;;;;;18.40;96551.00;;;;8346168;28;20203;-65
2022/07/05 03:11:38;;;;;;;4.15;2.30;;;;;18.20;96550.00;;;;8343412;28;20211;-64
2022/07/05 03:15:42;;;;;;;4.25;2.47;;;;;18.00;96564.00;;;;8350357;28;20192;-65
2022/07/05 03:19:47;;;;;;;3.08;2.60;;;;;17.90;96569.00;;;;8347288;28;20260;-66
2022/07/05 03:23:50;;;;;;;3.58;2.80;;;;;17.80;96568.00;;;;8348396;28;20196;-65
2022/07/05 03:27:53;;;;;;;2.70;2.40;;;;;17.60;96574.00;;;;8352579;28;20207;-66
2022/07/05 03:31:56;;;;;;;3.75;2.45;;;;;17.50;96580.00;;;;8350456;28;20236;-65
2022/07/05 03:36:01;;;;;;;5.28;2.70;;;;;17.40;96580.00;;;;8345707;28;20236;-65
2022/07/05 03:40:05;;;;;;;4.40;2.50;;;;;17.30;96586.00;;;;8348024;28;20346;-65
2022/07/05 03:44:09;;;;;;;4.20;2.85;;;;;17.30;96582.00;;;;8351064;28;20216;-65
2022/07/05 03:48:12;;;;;;;2.88;2.35;;;;;17.20;96589.00;;;;8351891;28;20634;-65
2022/07/05 03:52:36;;;;;;;2.88;2.67;;;;;17.10;96592.00;;;;8352052;28;20204;-65
2022/07/05 03:56:40;;;;;;;4.15;2.60;;;;;17.00;96600.00;;;;8351167;28;20202;-65
2022/07/05 04:00:43;;;;;;;3.00;2.80;;;;;17.00;96596.00;;;;8354402;28;20224;-65
2022/07/05 04:04:46;;;;;;;5.93;2.75;;;;;17.10;96591.00;;;;8350564;28;20244;-65
2022/07/05 04:08:51;;;;;;;3.10;2.90;;;;;17.20;96585.00;;;;8349804;28;20724;-65
2022/07/05 04:12:54;;;;;;;4.38;2.58;;;;;17.60;96593.00;;;;8348650;28;20206;-66
2022/07/05 04:16:57;;;;;;;3.08;2.67;;;;;17.90;96600.00;;;;8346132;28;20205;-66
2022/07/05 04:21:01;;;;;;;2.75;2.55;;;;;18.10;96599.00;;;;8352796;28;20602;-66
2022/07/05 04:25:18;;;;;;;2.75;2.55;;;;;18.50;96603.00;;;;8343093;28;20251;-66
2022/07/05 04:29:21;;;;;;;3.85;2.42;;;;;18.90;96602.00;;;;8352905;28;20279;-66
2022/07/05 04:33:25;;;;;;;2.60;2.40;;;;;19.40;96603.00;;;;8350678;28;20196;-66
2022/07/05 04:37:28;;;;;;;3.42;2.50;;;;;19.90;96604.00;;;;8350307;28;20252;-66
2022/07/05 04:41:33;;;;;;;3.58;2.10;;;;;20.40;96603.00;;;;8356934;28;20315;-66
2022/07/05 04:45:36;;;;;;;6.68;2.60;;;;;20.80;96602.00;;;;8342265;28;20880;-66
2022/07/05 04:49:40;;;;;;;3.63;2.53;;;;;21.10;96621.00;;;;8350673;28;20203;-66
2022/07/05 04:53:44;;;;;;;2.95;2.42;;;;;21.40;96625.00;;;;8356406;28;20201;-65
2022/07/05 04:57:48;;;;;;;3.50;2.20;;;;;21.50;96621.00;;;;8354315;28;20207;-66
2022/07/05 05:01:51;;;;;;;2.33;2.22;;;;;21.80;96626.00;;;;8356005;28;20311;-66
2022/07/05 05:05:55;;;;;;;4.45;2.58;;;;;22.10;96626.00;;;;8356779;28;20778;-66
2022/07/05 05:09:59;;;;;;;4.13;2.50;;;;;22.20;96632.00;;;;8348636;28;20291;-66
2022/07/05 05:14:04;;;;;;;7.43;2.58;;;;;22.40;96626.00;;;;8354004;28;20729;-66
2022/07/05 05:18:07;;;;;;;4.63;2.30;;;;;22.50;96630.00;;;;8354092;28;20193;-66
2022/07/05 05:22:10;;;;;;;4.93;2.17;;;;;22.40;96621.00;;;;8347922;28;20641;-65
2022/07/05 05:26:13;;;;;;;2.55;2.13;;;;;22.30;96628.00;;;;8354476;28;20236;-66
2022/07/05 05:30:20;;;;;;;4.45;2.17;;;;;22.30;96630.00;;;;8329563;28;20193;-66
2022/07/05 05:34:23;;;;;;;3.03;2.05;;;;;22.30;96632.00;;;;8350778;28;20666;-67
2022/07/05 05:38:26;;;;;;;3.33;2.03;;;;;22.30;96642.00;;;;8348665;28;20331;-67
2022/07/05 05:42:30;;;;;;;6.90;2.75;;;;;22.50;96637.00;;;;8346874;28;20940;-66
2022/07/05 05:46:35;;;;;;;5.00;2.30;;;;;22.70;96635.00;;;;8351624;28;20200;-66
2022/07/05 05:50:39;;;;;;;3.92;2.22;;;;;23.10;96641.00;;;;8351595;28;20232;-67
2022/07/05 05:54:43;;;;;;;2.70;2.17;;;;;23.40;96635.00;;;;8350603;28;20304;-67
2022/07/05 06:09:01;;;;;;;2.17;2.00;;;;;24.60;96650.00;;;;8367150;28;20179;-67
2022/07/05 06:13:08;;;;;;;6.50;2.55;;;;;25.00;96658.00;;;;8366588;28;20232;-67
2022/07/05 06:17:40;;;;;;;4.22;2.17;;;;;25.10;96656.00;;;;8367567;28;20200;-67
2022/07/05 06:21:43;;;;;;;3.08;2.10;;;;;25.00;96666.00;;;;8366651;28;20352;-67
2022/07/05 06:26:19;;;;;;;2.22;2.00;;;;;25.10;96666.00;;;;8367013;28;20640;-66
2022/07/05 06:30:24;;;;;;;2.55;2.03;;;;;25.80;96669.00;;;;8366310;28;20231;-67
2022/07/05 06:34:58;;;;;;;2.38;2.17;;;;;26.40;96658.00;;;;8366883;28;20287;-67
2022/07/05 06:39:35;;;;;;;3.10;2.45;;;;;26.70;96666.00;;;;8366982;28;20279;-66
2022/07/05 06:44:14;;;;;;;6.97;2.40;;;;;27.00;96668.00;;;;8359849;28;20303;-67
2022/07/05 06:48:37;;;;;;;2.53;2.20;;;;;27.30;96672.00;;;;8366582;28;20188;-66
2022/07/05 06:53:14;;;;;;;2.95;2.67;;;;;27.50;96673.00;;;;8364880;28;20192;-66
2022/07/05 06:57:57;;;;;;;3.25;2.58;;;;;28.00;96671.00;;;;8365791;28;20299;-65
2022/07/05 07:02:29;;;;;;;3.25;2.40;;;;;28.40;96677.00;;;;8365543;28;20225;-65
2022/07/05 07:07:03;;;;;;;2.72;2.55;;;;;28.80;96681.00;;;;8365899;28;20228;-66
2022/07/05 07:11:40;;;;;;;6.60;2.75;;;;;28.80;96685.00;;;;8365534;28;20283;-66
2022/07/05 07:16:17;;;;;;;6.30;2.67;;;;;29.30;96684.00;;;;8365690;28;20464;-67
2022/07/05 07:20:56;;;;;;;4.55;2.13;;;;;29.90;96688.00;;;;8365150;28;20307;-67
2022/07/05 07:24:59;;;;;;;6.32;2.65;;;;;30.10;96700.00;;;;8364639;28;20621;-67
2022/07/05 07:29:37;;;;;;;5.30;2.70;;;;;29.80;96697.00;;;;8365018;28;20203;-67
2022/07/05 07:33:41;;;;;;;2.67;2.40;;;;;30.20;96696.00;;;;8363689;28;20280;-68
2022/07/05 07:37:48;;;;;;;5.80;2.50;;;;;30.90;96700.00;;;;8364720;28;20201;-67
2022/07/05 07:41:53;;;;;;;3.10;2.58;;;;;30.70;96697.00;;;;8364924;28;20256;-67
2022/07/05 07:45:56;;;;;;;2.92;2.72;;;;;30.90;96703.00;;;;8364740;28;20230;-67
2022/07/05 07:50:30;;;;;;;3.00;2.47;;;;;30.40;96701.00;;;;8362262;28;20207;-68
2022/07/05 07:55:09;;;;;;;2.63;2.40;;;;;30.90;96694.00;;;;8362813;28;20238;-67
2022/07/05 07:59:43;;;;;;;2.83;2.40;;;;;30.40;96700.00;;;;8361690;28;20589;-65
2022/07/05 08:03:46;;;;;;;10.80;2.70;;;;;30.90;96697.00;;;;8365431;28;20323;-65
2022/07/05 08:07:51;;;;;;;6.07;2.70;;;;;31.70;96697.00;;;;8370974;28;20189;-65
2022/07/05 08:12:26;;;;;;;2.80;2.60;;;;;32.40;96696.00;;;;8371176;28;20203;-65
2022/07/05 08:17:00;;;;;;;4.35;2.60;;;;;33.10;96694.00;;;;8369594;28;20228;-65
2022/07/05 08:21:38;;;;;;;7.75;2.58;;;;;33.10;96700.00;;;;8368826;28;20662;-65
2022/07/05 08:26:14;;;;;;;4.72;2.40;;;;;31.80;96693.00;;;;8370890;28;20609;-65
2022/07/05 08:30:53;;;;;;;7.90;2.40;;;;;30.40;96697.00;;;;8369308;28;20192;-65
2022/07/05 08:35:26;;;;;;;3.15;2.15;;;;;30.40;96695.00;;;;8370173;28;20185;-64
2022/07/05 08:40:07;;;;;;;3.03;2.72;;;;;30.70;96700.00;;;;8370046;28;20189;-64
2022/07/05 08:44:39;;;;;;;2.90;2.50;;;;;29.90;96691.00;;;;8369263;28;20225;-64
2022/07/05 08:49:13;;;;;;;2.47;2.28;;;;;30.20;96693.00;;;;8369075;28;20200;-65
2022/07/05 08:53:53;;;;;;;4.88;2.45;;;;;31.80;96691.00;;;;8370810;28;20227;-65
2022/07/05 08:57:56;;;;;;;3.30;2.38;;;;;31.40;96692.00;;;;8368701;28;20276;-64
2022/07/05 09:02:33;;;;;;;3.22;2.30;;;;;29.80;96701.00;;;;8369085;28;20460;-65
2022/07/05 09:06:39;;;;;;;6.40;2.40;;;;;28.80;96690.00;;;;8368991;28;20261;-65
2022/07/05 09:11:15;;;;;;;4.63;2.90;;;;;28.40;96693.00;;;;8368679;28;20181;-64
2022/07/05 09:15:18;;;;;;;2.80;2.58;;;;;29.60;96685.00;;;;8367433;28;20239;-64
2022/07/05 09:19:21;;;;;;;4.07;2.35;;;;;31.40;96686.00;;;;8369448;28;20299;-65
2022/07/05 09:23:56;;;;;;;3.00;2.22;;;;;32.60;96693.00;;;;8368072;28;20217;-65
2022/07/05 09:28:02;;;;;;;1.98;1.88;;;;;32.80;96694.00;;;;8368349;28;20199;-65
2022/07/05 09:32:36;;;;;;;2.08;1.98;;;;;31.10;96694.00;;;;8368174;28;20506;-65
2022/07/05 09:37:13;;;;;;;3.63;1.92;;;;;32.80;96700.00;;;;8368149;28;20279;-65
2022/07/05 09:41:47;;;;;;;1.98;1.88;;;;;33.90;96694.00;;;;8367761;28;20225;-64
2022/07/05 09:45:54;;;;;;;8.73;2.10;;;;;34.50;96693.00;;;;8367896;28;20639;-65
2022/07/05 09:50:34;;;;;;;2.13;1.90;;;;;34.40;96695.00;;;;8368828;28;20279;-65
2022/07/05 09:55:05;;;;;;;1.83;1.70;;;;;33.70;96705.00;;;;8367317;28;20193;-65
2022/07/05 09:59:17;;;;;;;4.15;1.90;;;;;33.80;96703.00;;;;8367145;28;20234;-65
2022/07/05 10:03:57;;;;;;;2.30;1.60;;;;;34.30;96702.00;;;;8366845;28;20228;-65
2022/07/05 10:08:31;;;;;;;1.75;1.65;;;;;33.10;96706.00;;;;8365740;28;20232;-65
2022/07/05 10:13:09;;;;;;;6.20;1.60;;;;;32.90;96706.00;;;;8366468;28;20188;-65
2022/07/05 10:17:45;;;;;;;1.90;1.70;;;;;33.30;96705.00;;;;8366187;28;20291;-65
2022/07/05 10:22:24;;;;;;;6.65;1.83;;;;;34.20;96709.00;;;;8366367;28;20713;-66
2022/07/05 10:27:01;;;;;;;1.38;1.38;;;;;35.10;96699.00;;;;8365747;28;20243;-66
2022/07/05 10:31:38;;;;;;;2.55;1.40;;;;;35.40;96706.00;;;;8366845;28;20239;-66
2022/07/05 10:36:15;;;;;;;1.60;1.50;;;;;35.70;96701.00;;;;8366106;28;20232;-66
2022/07/05 10:40:55;;;;;;;1.77;1.48;;;;;36.10;96699.00;;;;8366233;28;20284;-65
2022/07/05 10:45:31;;;;;;;1.60;1.50;;;;;36.00;96702.00;;;;8366403;28;20694;-66
2022/07/05 10:50:05;;;;;;;5.25;1.35;;;;;35.50;96701.00;;;;8366556;28;20296;-66
2022/07/05 10:55:04;;;;;;;1.50;1.27;;;;;34.80;96700.00;;;;8362131;28;20205;-66
2022/07/05 10:59:53;;;;;;;2.65;1.40;;;;;35.90;96693.00;;;;8364784;28;20287;-66
2022/07/05 11:04:34;;;;;;;2.72;1.30;;;;;36.40;96698.00;;;;8365108;28;20224;-67
2022/07/05 11:09:16;;;;;;;2.45;1.35;;;;;36.30;96691.00;;;;8365337;28;20569;-66
2022/07/05 11:13:38;;;;;;;3.83;1.20;;;;;36.60;96701.00;;;;8364840;28;20232;-66
2022/07/05 11:18:16;;;;;;;3.70;1.35;;;;;36.20;96696.00;;;;8365599;28;20325;-67
2022/07/05 11:22:56;;;;;;;1.52;1.30;;;;;36.60;96686.00;;;;8363655;28;20328;-66
2022/07/05 11:27:33;;;;;;;2.08;1.30;;;;;36.40;96689.00;;;;8364106;28;20284;-66
2022/07/05 11:32:13;;;;;;;1.58;1.20;;;;;34.30;96692.00;;;;8363984;28;20235;-66
2022/07/05 11:37:06;;;;;;;1.23;1.17;;;;;34.30;96675.00;;;;8364463;28;20211;-66
2022/07/05 11:41:31;;;;;;;1.38;1.17;;;;;34.60;96682.00;;;;8364431;28;20200;-66
2022/07/05 11:46:05;;;;;;;1.33;1.10;;;;;34.00;96681.00;;;;8360531;28;20252;-65
2022/07/05 11:50:44;;;;;;;1.88;1.50;;;;;34.90;96665.00;;;;8363404;28;20295;-66
2022/07/05 11:55:18;;;;;;;32.60;2.42;;;;;36.20;96672.00;;;;8362805;28;20196;-64
2022/07/05 11:59:55;;;;;;;4.45;1.40;;;;;35.10;96684.00;;;;8364011;28;20295;-67
2022/07/05 12:04:32;;;;;;;1.30;1.20;;;;;32.90;96667.00;;;;8363585;28;20235;-67
2022/07/05 12:08:36;;;;;;;3.97;1.40;;;;;33.40;96664.00;;;;8363612;28;20196;-67
2022/07/05 12:13:11;;;;;;;1.30;1.30;;;;;34.20;96668.00;;;;8363495;28;20280;-66
2022/07/05 12:17:16;;;;;;;1.40;1.20;;;;;34.50;96663.00;;;;8363667;28;20224;-66
2022/07/05 12:21:26;;;;;;;1.48;1.40;;;;;34.90;96666.00;;;;8363911;28;20582;-67
2022/07/05 12:25:32;;;;;;;5.03;1.23;;;;;35.60;96665.00;;;;8363219;28;20265;-66
2022/07/05 12:30:09;;;;;;;2.72;1.00;;;;;35.60;96668.00;;;;8363550;28;20281;-66
2022/07/05 12:34:46;;;;;;;3.67;1.73;;;;;34.80;96672.00;;;;8362571;28;20291;-66
2022/07/05 12:39:23;;;;;;;1.83;1.05;;;;;35.60;96682.00;;;;8363301;28;20282;-66
2022/07/05 12:44:02;;;;;;;1.17;1.17;;;;;35.50;96672.00;;;;8363014;28;20228;-66
2022/07/05 12:48:37;;;;;;;3.38;1.20;;;;;35.40;96674.00;;;;8364407;28;20280;-66
2022/07/05 12:52:58;;;;;;;1.35;1.25;;;;;34.70;96670.00;;;;8369054;28;20232;-66
2022/07/05 13:01:28;;;;;;;1.20;1.10;;;;;33.50;96674.00;;;;8369647;28;20568;-68
2022/07/05 13:06:05;;;;;;;2.85;1.30;;;;;32.90;96674.00;;;;8369192;28;20565;-67
2022/07/05 13:10:15;;;;;;;2.05;1.35;;;;;31.80;96664.00;;;;8303577;28;20285;-66
2022/07/05 13:14:50;;;;;;;1.88;1.38;;;;;31.60;96662.00;;;;8302885;28;20296;-67
2022/07/05 13:18:54;;;;;;;1.17;1.17;;;;;32.10;96663.00;;;;8302198;28;20285;-67
2022/07/05 13:23:28;;;;;;;3.05;1.33;;;;;32.10;96659.00;;;;8303065;28;20234;-66
2022/07/05 13:27:34;;;;;;;2.75;1.20;;;;;31.40;96672.00;;;;8302107;28;20213;-66
2022/07/05 13:31:37;;;;;;;1.38;1.20;;;;;32.30;96667.00;;;;8303072;28;20229;-66
2022/07/05 13:36:15;;;;;;;1.88;1.30;;;;;33.20;96669.00;;;;8302523;28;20272;-66
2022/07/05 13:40:19;;;;;;;2.88;1.50;;;;;33.50;96674.00;;;;8302337;28;20303;-66
2022/07/05 13:44:22;;;;;;;2.92;1.55;;;;;33.00;96663.00;;;;8301142;28;20222;-67
2022/07/05 13:48:25;;;;;;;2.67;1.13;;;;;33.60;96672.00;;;;8301988;28;20281;-67
2022/07/05 13:53:04;;;;;;;3.22;1.52;;;;;34.60;96658.00;;;;8301729;28;20289;-66
2022/07/05 13:57:07;;;;;;;2.47;1.35;;;;;35.50;96656.00;;;;8301143;28;20289;-66
2022/07/05 14:01:10;;;;;;;2.78;1.10;;;;;35.90;96652.00;;;;8300435;28;20703;-67
2022/07/05 14:05:47;;;;;;;1.23;1.20;;;;;36.10;96657.00;;;;8301267;28;20762;-67
2022/07/05 14:10:24;;;;;;;1.23;1.05;;;;;36.30;96656.00;;;;8361783;28;20224;-67
2022/07/05 14:14:58;;;;;;;1.30;1.17;;;;;36.30;96660.00;;;;8366125;28;20288;-67
2022/07/05 14:19:35;;;;;;;4.18;1.33;;;;;34.20;96663.00;;;;8366640;28;20231;-66
2022/07/05 14:24:13;;;;;;;1.10;1.10;;;;;33.00;96663.00;;;;8366118;28;20227;-66
2022/07/05 14:28:47;;;;;;;2.20;1.60;;;;;32.20;96660.00;;;;8366438;28;20279;-65
2022/07/05 14:33:26;;;;;;;3.72;1.23;;;;;33.10;96640.00;;;;8365812;28;20271;-65
2022/07/05 14:38:00;;;;;;;1.50;1.10;;;;;33.80;96641.00;;;;8362898;28;20197;-65
2022/07/05 14:42:37;;;;;;;1.10;1.10;;;;;33.60;96643.00;;;;8364751;28;20526;-65
2022/07/05 14:47:11;;;;;;;2.22;1.30;;;;;34.40;96645.00;;;;8366796;28;20427;-65
2022/07/05 14:51:50;;;;;;;3.65;1.30;;;;;34.20;96637.00;;;;8365625;28;20553;-67
2022/07/05 14:55:54;;;;;;;3.20;1.30;;;;;33.90;96637.00;;;;8364832;28;20289;-66
2022/07/05 14:59:58;;;;;;;1.80;1.63;;;;;32.70;96644.00;;;;8365951;28;20192;-67
2022/07/05 15:04:01;;;;;;;1.60;1.30;;;;;32.70;96633.00;;;;8365533;28;20308;-66
2022/07/05 15:08:06;;;;;;;3.13;1.60;;;;;33.10;96634.00;;;;8365125;28;20624;-67
2022/07/05 15:12:40;;;;;;;4.35;1.30;;;;;33.30;96629.00;;;;8365649;28;20634;-67
2022/07/05 15:17:17;;;;;;;1.63;1.30;;;;;33.70;96617.00;;;;8365110;28;20576;-67
2022/07/05 15:21:20;;;;;;;1.65;1.40;;;;;33.80;96631.00;;;;8365067;28;20607;-67
2022/07/05 15:25:25;;;;;;;2.85;1.40;;;;;33.90;96632.00;;;;8365238;28;20227;-68
2022/07/05 15:29:59;;;;;;;1.55;1.45;;;;;33.90;96614.00;;;;8365053;28;20275;-68
2022/07/05 15:34:02;;;;;;;5.00;1.40;;;;;33.60;96632.00;;;;8364424;28;20511;-67
2022/07/05 15:38:05;;;;;;;1.95;1.50;;;;;32.70;96630.00;;;;8365595;28;20642;-67
2022/07/05 15:42:10;;;;;;;2.55;1.30;;;;;32.30;96625.00;;;;8364560;28;20705;-67
2022/07/05 15:46:14;;;;;;;1.27;1.23;;;;;32.00;96625.00;;;;8364262;28;20323;-67
2022/07/05 15:50:17;;;;;;;1.67;1.55;;;;;31.70;96626.00;;;;8364761;28;20193;-66
2022/07/05 15:54:54;;;;;;;5.65;1.58;;;;;31.80;96621.00;;;;8364791;28;20201;-67
2022/07/05 15:58:59;;;;;;;4.85;1.50;;;;;31.90;96613.00;;;;8363920;28;20196;-66
2022/07/05 16:03:02;;;;;;;4.85;1.75;;;;;32.40;96607.00;;;;8365025;28;20662;-66
2022/07/05 16:07:05;;;;;;;1.70;1.30;;;;;33.10;96605.00;;;;8363701;28;20324;-65
2022/07/05 16:11:09;;;;;;;1.42;1.20;;;;;33.40;96604.00;;;;8363955;28;20283;-65
2022/07/05 16:16:10;;;;;;;3.42;1.38;;;;;32.60;96614.00;;;;8364880;28;20668;-66
2022/07/05 16:19:37;;;;;;;1.63;1.52;;;;;32.60;96604.00;;;;8363299;28;20606;-66
2022/07/05 16:23:40;;;;;;;2.90;1.35;;;;;33.40;96602.00;;;;8364187;28;20275;-67
2022/07/05 16:27:44;;;;;;;2.60;1.20;;;;;33.30;96611.00;;;;8371700;28;20598;-66
2022/07/05 16:31:51;;;;;;;4.00;1.48;;;;;32.80;96614.00;;;;8370955;28;20207;-66
2022/07/05 16:35:55;;;;;;;2.75;1.20;;;;;32.00;96615.00;;;;8369803;28;20196;-66
2022/07/05 16:40:31;;;;;;;1.50;1.30;;;;;31.50;96610.00;;;;8370562;28;20292;-67
2022/07/05 16:44:35;;;;;;;1.58;1.30;;;;;31.90;96604.00;;;;8369603;28;20300;-66
2022/07/05 16:48:41;;;;;;;4.70;1.50;;;;;32.10;96603.00;;;;8368990;28;20200;-66
2022/07/05 16:53:15;;;;;;;1.48;1.40;;;;;32.80;96609.00;;;;8369920;28;20192;-66
2022/07/05 16:57:18;;;;;;;2.83;1.35;;;;;32.50;96614.00;;;;8369383;28;20193;-66
2022/07/05 17:01:22;;;;;;;1.13;1.13;;;;;31.80;96603.00;;;;8369250;28;20292;-65
2022/07/05 17:05:58;;;;;;;5.20;1.60;;;;;31.30;96609.00;;;;8368933;28;20228;-66
2022/07/05 17:10:01;;;;;;;2.83;1.35;;;;;31.70;96608.00;;;;8368547;28;20319;-66
2022/07/05 17:14:04;;;;;;;1.20;1.20;;;;;31.10;96606.00;;;;8368776;28;20590;-66
2022/07/05 17:18:08;;;;;;;5.28;1.40;;;;;30.40;96607.00;;;;8368980;28;20229;-66
2022/07/05 17:22:44;;;;;;;2.20;1.40;;;;;29.90;96616.00;;;;8368498;28;20200;-66
2022/07/05 17:26:47;;;;;;;1.50;1.40;;;;;30.20;96602.00;;;;8368249;28;20688;-65
2022/07/05 17:30:50;;;;;;;1.60;1.50;;;;;31.30;96606.00;;;;8368721;28;20295;-66
2022/07/05 17:35:24;;;;;;;2.00;1.52;;;;;31.80;96616.00;;;;8367793;28;20584;-67
2022/07/05 17:39:29;;;;;;;1.73;1.40;;;;;32.20;96607.00;;;;8369494;28;20292;-70
2022/07/05 17:44:05;;;;;;;1.50;1.50;;;;;32.50;96611.00;;;;8369497;28;20271;-69
2022/07/05 17:48:08;;;;;;;2.00;1.23;;;;;32.80;96618.00;;;;8366848;28;20279;-71
2022/07/05 17:52:45;;;;;;;1.48;1.38;;;;;32.50;96617.00;;;;8366440;28;20200;-69
2022/07/05 17:57:24;;;;;;;2.22;1.17;;;;;32.40;96623.00;;;;8366625;28;20193;-70
2022/07/05 18:02:01;;;;;;;2.13;1.40;;;;;31.90;96626.00;;;;8364246;28;20279;-70
2022/07/05 18:06:35;;;;;;;1.50;1.40;;;;;31.10;96623.00;;;;8362807;28;20220;-69
2022/07/05 18:10:39;;;;;;;1.75;1.48;;;;;30.20;96632.00;;;;8367088;28;20216;-70
2022/07/05 18:14:43;;;;;;;3.67;1.30;;;;;29.50;96631.00;;;;8367753;28;20616;-70
2022/07/05 18:19:17;;;;;;;2.75;1.30;;;;;28.90;96629.00;;;;8366554;28;20235;-70
2022/07/05 18:23:54;;;;;;;6.30;1.50;;;;;28.50;96629.00;;;;8367568;28;20279;-71
2022/07/05 18:27:57;;;;;;;2.05;1.40;;;;;28.20;96637.00;;;;8366151;28;20234;-71
2022/07/05 18:32:33;;;;;;;1.50;1.40;;;;;27.80;96635.00;;;;8366040;28;20240;-70
2022/07/05 18:37:08;;;;;;;1.30;1.20;;;;;27.50;96643.00;;;;8366260;28;20204;-70
2022/07/05 18:41:46;;;;;;;8.02;1.88;;;;;27.20;96646.00;;;;8366338;28;20283;-69
2022/07/05 18:46:23;;;;;;;1.55;1.45;;;;;26.70;96643.00;;;;8365769;28;20271;-66
2022/07/05 18:50:28;;;;;;;2.67;1.40;;;;;26.40;96645.00;;;;8366708;28;20228;-66
2022/07/05 18:54:31;;;;;;;3.15;1.42;;;;;26.00;96641.00;;;;8364762;28;20650;-66
2022/07/05 18:58:34;;;;;;;2.83;1.55;;;;;25.70;96641.00;;;;8365174;28;20228;-66
2022/07/05 19:02:37;;;;;;;5.25;2.03;;;;;25.40;96637.00;;;;8363869;28;20216;-67
2022/07/05 19:16:12;;;;;;;1.63;1.60;;;;;24.40;96652.00;;;;8331599;28;20269;-66
2022/07/05 19:20:46;;;;;;;2.63;1.60;;;;;24.10;96658.00;;;;8332412;28;20289;-66
2022/07/05 19:25:23;;;;;;;3.53;1.67;;;;;23.80;96646.00;;;;8329912;28;20239;-66
2022/07/05 19:29:26;;;;;;;1.55;1.55;;;;;23.60;96661.00;;;;8331410;28;20213;-68
2022/07/05 19:34:01;;;;;;;2.20;1.70;;;;;23.40;96651.00;;;;8332000;28;20202;-67
2022/07/05 19:38:38;;;;;;;5.40;1.67;;;;;23.10;96666.00;;;;8332070;28;20605;-67
2022/07/05 19:43:18;;;;;;;2.17;1.75;;;;;22.90;96669.00;;;;8331153;28;20687;-68
2022/07/05 19:47:52;;;;;;;7.30;1.65;;;;;22.70;96679.00;;;;8331611;28;20304;-68
2022/07/05 19:51:55;;;;;;;2.85;1.50;;;;;22.50;96682.00;;;;8331914;28;20189;-67
2022/07/05 19:56:32;;;;;;;2.90;1.67;;;;;22.10;96688.00;;;;8330996;28;20288;-66
2022/07/05 20:01:11;;;;;;;3.17;1.65;;;;;21.60;96686.00;;;;8336986;28;20534;-68
2022/07/05 20:05:44;;;;;;;1.75;1.63;;;;;21.30;96687.00;;;;8338476;28;20225;-68
2022/07/05 20:15:04;;;;;;;1.98;1.70;;;;;20.60;96678.00;;;;8370278;28;20299;-68
2022/07/05 20:19:39;;;;;;;1.80;1.70;;;;;20.40;96690.00;;;;8371485;28;20197;-69
2022/07/05 20:24:13;;;;;;;1.83;1.65;;;;;20.20;96682.00;;;;8371060;28;20280;-69
2022/07/05 20:28:49;;;;;;;1.65;1.63;;;;;20.10;96685.00;;;;8370542;28;20289;-68
2022/07/05 20:33:27;;;;;;;2.30;1.77;;;;;19.90;96682.00;;;;8369727;28;20279;-68
2022/07/05 20:38:05;;;;;;;3.80;1.88;;;;;19.70;96685.00;;;;8369009;28;20272;-67
2022/07/05 20:42:42;;;;;;;2.28;1.90;;;;;19.60;96687.00;;;;8370126;28;20232;-67
2022/07/05 20:46:45;;;;;;;3.50;1.98;;;;;19.60;96694.00;;;;8368871;28;20231;-68
2022/07/05 20:51:22;;;;;;;2.10;1.90;;;;;19.50;96683.00;;;;8369394;28;20196;-68
2022/07/05 20:55:27;;;;;;;1.85;1.75;;;;;19.40;96688.00;;;;8369354;28;20236;-68
2022/07/05 21:00:00;;;;;;;1.90;1.80;;;;;19.40;96680.00;;;;8369602;28;20280;-69
2022/07/05 21:04:05;;;;;;;2.90;1.67;;;;;19.40;96685.00;;;;8368702;28;20216;-69
2022/07/05 21:08:08;;;;;;;2.78;1.88;;;;;19.40;96694.00;;;;8369428;28;20232;-69
2022/07/05 21:12:13;;;;;;;2.97;2.00;;;;;19.30;96689.00;;;;8368119;28;20279;-69
2022/07/05 21:16:17;;;;;;;2.42;1.88;;;;;19.10;96686.00;;;;8368405;28;20224;-70
2022/07/05 21:20:20;;;;;;;3.75;2.10;;;;;18.90;96692.00;;;;8369995;28;20200;-68
2022/07/05 21:24:23;;;;;;;2.40;2.20;;;;;18.80;96699.00;;;;8368180;28;20228;-69
2022/07/05 21:28:28;;;;;;;6.03;1.90;;;;;18.70;96702.00;;;;8368336;28;20263;-69
2022/07/05 21:32:32;;;;;;;2.80;1.80;;;;;18.60;96705.00;;;;8369208;28;20581;-69
2022/07/05 21:37:09;;;;;;;1.83;1.73;;;;;18.50;96721.00;;;;8368010;28;20612;-69
2022/07/05 21:41:12;;;;;;;2.47;1.90;;;;;18.40;96722.00;;;;8367670;28;20280;-69
2022/07/05 21:45:16;;;;;;;5.78;2.20;;;;;18.40;96723.00;;;;8369451;28;20201;-69
2022/07/05 21:49:20;;;;;;;3.28;1.98;;;;;18.30;96720.00;;;;8368064;28;20239;-68
2022/07/05 21:53:57;;;;;;;8.75;2.92;;;;;18.10;96717.00;;;;8368404;28;20283;-69
2022/07/05 21:58:00;;;;;;;2.20;1.98;;;;;18.00;96716.00;;;;8367439;28;20197;-68